Time;durP1;ratioP1;P1;durP2;ratioP2;P2;SDS_P1;SDS_P2;PMS_P1;PMS_P2;Temp;Humidity;BMP_temperature;BMP_pressure;BME280_temperature;BME280_humidity;BME280_pressure;Samples;Min_cycle;Max_cycle;Signal;HPM_P1;HPM_P2
2022/09/09 00:02:21;;;;;;;2.22;1.63;;;;;;;15.49;77.86;100674.25;6177358;23;20009;-89
2022/09/09 00:05:27;;;;;;;5.75;1.63;;;;;;;15.68;76.51;100677.50;6153090;23;20374;-89
2022/09/09 00:07:55;;;;;;;1.40;1.30;;;;;;;15.52;76.68;100671.38;6165465;23;20028;-89
2022/09/09 00:10:39;;;;;;;5.10;1.55;;;;;;;15.55;77.22;100676.53;6148998;23;20043;-89
2022/09/09 00:13:27;;;;;;;1.33;1.08;;;;;;;15.48;77.20;100669.84;6179602;23;20016;-89
2022/09/09 00:16:16;;;;;;;2.47;1.38;;;;;;;15.49;76.63;100677.78;6152169;23;20009;-89
2022/09/09 00:18:59;;;;;;;1.98;1.27;;;;;;;15.54;77.03;100674.81;6178454;23;20456;-89
2022/09/09 00:21:34;;;;;;;1.30;1.10;;;;;;;15.50;76.99;100671.50;6150869;23;20004;-88
2022/09/09 00:24:08;;;;;;;2.40;1.42;;;;;;;15.40;76.80;100664.19;6178877;23;20039;-89
2022/09/09 00:26:44;;;;;;;1.50;1.40;;;;;;;15.38;77.84;100660.75;6177988;23;20382;-88
2022/09/09 00:29:20;;;;;;;4.38;1.38;;;;;;;15.38;77.93;100664.25;6149326;23;20008;-89
2022/09/09 00:31:46;;;;;;;2.00;1.30;;;;;;;15.28;77.12;100658.66;6175082;23;20012;-88
2022/09/09 00:34:21;;;;;;;1.88;1.20;;;;;;;15.28;77.98;100666.66;6177942;23;20112;-88
2022/09/09 00:36:52;;;;;;;2.05;1.08;;;;;;;15.21;77.95;100657.34;6151825;23;20082;-89
2022/09/09 00:39:42;;;;;;;1.20;1.10;;;;;;;15.29;77.06;100670.16;6175732;23;20001;-88
2022/09/09 00:42:17;;;;;;;3.15;1.20;;;;;;;15.28;77.41;100656.00;6174701;23;20441;-88
2022/09/09 00:44:52;;;;;;;3.88;1.08;;;;;;;15.17;78.24;100655.81;6148412;23;20465;-88
2022/09/09 00:47:20;;;;;;;1.60;1.00;;;;;;;15.20;77.67;100660.06;6174514;23;20005;-88
2022/09/09 00:50:03;;;;;;;1.20;1.05;;;;;;;15.30;76.85;100647.94;6174806;23;20016;-88
2022/09/09 00:52:44;;;;;;;1.70;1.05;;;;;;;15.28;77.62;100645.34;6176368;23;20009;-88
2022/09/09 00:55:32;;;;;;;3.85;1.08;;;;;;;15.32;76.46;100638.88;6178289;23;20052;-89
2022/09/09 00:57:57;;;;;;;2.08;1.00;;;;;;;15.24;76.38;100640.28;6180328;23;20559;-89
2022/09/09 01:00:41;;;;;;;2.10;1.00;;;;;;;15.15;76.89;100627.56;6151272;23;20041;-88
2022/09/09 01:03:30;;;;;;;3.33;1.05;;;;;;;15.24;76.74;100657.13;6180036;23;20004;-89
2022/09/09 01:06:04;;;;;;;2.58;0.98;;;;;;;15.21;77.33;100643.19;6127825;23;20433;-88
2022/09/09 01:08:59;;;;;;;2.05;1.25;;;;;;;15.25;76.71;100648.22;6151998;23;20012;-89
2022/09/09 01:11:30;;;;;;;4.45;1.10;;;;;;;15.15;77.15;100644.38;6177743;23;20005;-88
2022/09/09 01:14:11;;;;;;;3.42;1.13;;;;;;;15.17;76.69;100637.19;6176082;23;20447;-88
2022/09/09 01:16:37;;;;;;;1.58;1.05;;;;;;;15.18;76.15;100641.53;6175250;23;20114;-89
2022/09/09 01:19:07;;;;;;;1.42;1.13;;;;;;;15.14;76.29;100633.84;6177494;23;20143;-89
2022/09/09 01:21:55;;;;;;;2.10;0.80;;;;;;;15.10;75.80;100643.81;6151618;23;20372;-88
2022/09/09 01:24:35;;;;;;;2.47;1.10;;;;;;;15.05;76.25;100645.91;6174828;23;20005;-89
2022/09/09 01:27:04;;;;;;;1.60;1.30;;;;;;;14.99;78.06;100647.16;6150896;23;20001;-89
2022/09/09 01:29:29;;;;;;;1.67;1.00;;;;;;;14.89;77.73;100637.19;6175262;23;20066;-89
2022/09/09 01:31:57;;;;;;;1.95;1.25;;;;;;;14.87;77.36;100641.72;6177750;23;20009;-89
2022/09/09 01:34:25;;;;;;;1.30;1.10;;;;;;;14.76;77.72;100616.63;6174265;23;20484;-89
2022/09/09 01:36:53;;;;;;;2.25;1.13;;;;;;;14.95;78.23;100642.13;6178604;23;20023;-88
2022/09/09 01:39:19;;;;;;;5.50;1.23;;;;;;;14.84;77.73;100636.59;6152574;23;20048;-88
2022/09/09 01:41:45;;;;;;;3.05;1.25;;;;;;;14.72;78.23;100611.59;6175665;23;20009;-88
2022/09/09 01:44:11;;;;;;;2.70;1.40;;;;;;;14.82;78.09;100619.84;6151581;23;20029;-88
2022/09/09 01:46:36;;;;;;;2.40;1.38;;;;;;;14.88;77.96;100630.16;6176337;23;20005;-88
2022/09/09 01:49:04;;;;;;;4.90;1.45;;;;;;;14.79;78.10;100615.59;6178234;23;20421;-89
2022/09/09 01:51:30;;;;;;;2.30;1.38;;;;;;;14.85;78.12;100617.88;6149254;23;20016;-89
2022/09/09 01:53:55;;;;;;;5.75;1.60;;;;;;;14.88;78.03;100627.50;6176990;23;20143;-89
2022/09/09 01:56:33;;;;;;;2.58;1.27;;;;;;;14.87;77.61;100620.44;6177701;23;20411;-89
2022/09/09 01:59:15;;;;;;;2.58;1.50;;;;;;;14.92;77.74;100628.97;6152157;23;20007;-88
2022/09/09 02:02:03;;;;;;;2.40;1.50;;;;;;;14.88;77.25;100635.47;6176174;23;20005;-89
2022/09/09 02:04:40;;;;;;;4.13;1.45;;;;;;;14.89;77.64;100630.03;6174019;23;20004;-89
2022/09/09 02:07:37;;;;;;;1.98;1.23;;;;;;;14.83;76.99;100617.13;6133428;23;20112;-89
2022/09/09 02:10:22;;;;;;;4.05;1.48;;;;;;;14.81;77.52;100611.03;6121293;23;20013;-89
2022/09/09 02:12:53;;;;;;;2.45;1.13;;;;;;;14.78;77.00;100617.41;6122073;23;20006;-89
2022/09/09 02:15:26;;;;;;;1.60;1.40;;;;;;;14.72;77.81;100617.75;6147377;23;20009;-88
2022/09/09 02:17:53;;;;;;;1.63;1.23;;;;;;;14.68;77.68;100608.25;6122694;23;19998;-89
2022/09/09 02:20:20;;;;;;;3.58;1.48;;;;;;;14.54;79.89;100592.25;6120745;23;20392;-89
2022/09/09 02:22:49;;;;;;;3.13;1.60;;;;;;;14.59;78.75;100611.47;6122007;23;20033;-89
2022/09/09 02:25:18;;;;;;;3.33;1.45;;;;;;;14.58;78.64;100615.06;6118992;23;20442;-89
2022/09/09 02:27:47;;;;;;;3.28;1.38;;;;;;;14.59;78.58;100611.47;6120510;23;20032;-88
2022/09/09 02:30:13;;;;;;;4.32;1.52;;;;;;;14.62;78.48;100613.09;6145971;23;20408;-89
2022/09/09 02:32:41;;;;;;;2.20;1.77;;;;;;;14.59;79.17;100608.81;6146493;23;20028;-89
2022/09/09 02:35:14;;;;;;;1.75;1.48;;;;;;;14.66;77.62;100611.97;6146970;23;20390;-88
2022/09/09 02:37:42;;;;;;;3.13;1.63;;;;;;;14.62;77.56;100611.28;6120423;23;20388;-89
2022/09/09 02:40:10;;;;;;;2.42;1.42;;;;;;;14.58;77.45;100609.75;6147220;23;20489;-89
2022/09/09 02:42:43;;;;;;;3.03;1.42;;;;;;;14.60;78.01;100607.88;6147118;23;20135;-89
2022/09/09 02:45:12;;;;;;;6.65;1.98;;;;;;;14.55;78.84;100609.97;6121087;23;20444;-89
2022/09/09 02:47:48;;;;;;;6.65;1.83;;;;;;;14.42;80.43;100601.81;6146172;23;20002;-89
2022/09/09 02:50:25;;;;;;;2.03;1.70;;;;;;;14.50;79.28;100612.91;6121735;23;20005;-89
2022/09/09 02:53:37;;;;;;;5.53;1.90;;;;;;;14.53;78.25;100598.53;6122822;23;20056;-89
2022/09/09 02:56:13;;;;;;;4.07;2.10;;;;;;;14.47;80.39;100617.50;6057168;23;20017;-89
2022/09/09 02:58:39;;;;;;;3.80;1.63;;;;;;;14.41;78.42;100608.09;6139593;23;20005;-89
2022/09/09 03:01:04;;;;;;;4.32;1.60;;;;;;;14.41;78.48;100612.53;6121438;23;20353;-89
2022/09/09 03:03:31;;;;;;;4.40;1.70;;;;;;;14.39;78.56;100603.81;6120553;23;20006;-89
2022/09/09 03:05:56;;;;;;;4.32;1.42;;;;;;;14.34;78.28;100604.09;6150588;23;20024;-89
2022/09/09 03:08:22;;;;;;;3.53;1.83;;;;;;;14.39;79.94;100617.97;6177672;23;20425;-89
2022/09/09 03:10:47;;;;;;;7.32;1.70;;;;;;;14.38;80.27;100610.94;6178782;23;20610;-89
2022/09/09 03:13:12;;;;;;;3.50;1.45;;;;;;;14.36;78.86;100603.97;6151686;23;20040;-89
2022/09/09 03:15:38;;;;;;;5.93;1.77;;;;;;;14.42;79.89;100609.81;6175084;23;20213;-89
2022/09/09 03:18:03;;;;;;;3.58;1.77;;;;;;;14.43;79.28;100615.97;6151763;23;20326;-89
2022/09/09 03:20:29;;;;;;;5.45;1.65;;;;;;;14.40;80.83;100605.50;6150356;23;20229;-90
2022/09/09 03:22:56;;;;;;;4.97;1.60;;;;;;;14.46;79.75;100615.81;6178584;23;20433;-89
2022/09/09 03:25:23;;;;;;;4.45;1.90;;;;;;;14.53;79.66;100618.03;6176177;23;20373;-89
2022/09/09 03:27:50;;;;;;;2.15;1.83;;;;;;;14.67;79.90;100629.63;6150380;23;20009;-89
2022/09/09 03:30:15;;;;;;;6.20;2.28;;;;;;;14.51;79.95;100614.59;6175223;23;20004;-89
2022/09/09 03:32:41;;;;;;;4.40;1.80;;;;;;;14.62;79.52;100616.63;6175773;23;20084;-90
2022/09/09 03:35:07;;;;;;;4.57;2.10;;;;;;;14.72;79.95;100627.56;6173089;23;20127;-89
2022/09/09 03:37:32;;;;;;;8.10;1.90;;;;;;;14.66;80.35;100618.13;6177441;23;20027;-89
2022/09/09 03:39:59;;;;;;;4.25;2.45;;;;;;;14.68;81.19;100612.72;6150428;23;20085;-90
2022/09/09 03:42:25;;;;;;;4.07;1.75;;;;;;;14.62;80.58;100603.31;6176574;23;20036;-88
2022/09/09 03:44:50;;;;;;;4.15;2.30;;;;;;;14.73;80.73;100619.47;6151150;23;20341;-89
2022/09/09 03:47:18;;;;;;;11.40;2.45;;;;;;;14.70;81.24;100609.03;6177454;23;20009;-89
2022/09/09 03:49:44;;;;;;;4.97;1.80;;;;;;;14.70;80.98;100629.47;6151911;23;20011;-89
2022/09/09 03:52:09;;;;;;;4.75;2.00;;;;;;;14.68;80.33;100610.06;6153827;23;20013;-89
2022/09/09 03:54:35;;;;;;;4.90;2.05;;;;;;;14.66;81.15;100596.00;6178035;23;20008;-89
2022/09/09 03:57:01;;;;;;;3.50;1.88;;;;;;;14.73;80.99;100602.66;6153425;23;20054;-89
2022/09/09 03:59:26;;;;;;;7.43;2.40;;;;;;;14.73;81.61;100610.63;6151359;23;20337;-90
2022/09/09 04:01:51;;;;;;;3.75;2.10;;;;;;;14.73;81.49;100608.81;6151750;23;20429;-89
2022/09/09 04:04:17;;;;;;;9.40;2.00;;;;;;;14.70;81.60;100594.88;6179802;23;20005;-89
2022/09/09 04:06:42;;;;;;;4.63;1.80;;;;;;;14.79;81.24;100613.78;6175526;23;20071;-89
2022/09/09 04:09:07;;;;;;;7.00;2.63;;;;;;;14.72;81.51;100600.94;6177000;23;20009;-89
2022/09/09 04:11:33;;;;;;;4.30;1.80;;;;;;;14.76;81.96;100611.31;6180420;23;20009;-89
2022/09/09 04:13:59;;;;;;;6.63;2.33;;;;;;;14.70;82.50;100611.69;6153399;23;20086;-90
2022/09/09 04:16:24;;;;;;;4.93;2.22;;;;;;;14.71;82.50;100607.22;6176797;23;20283;-89
2022/09/09 04:18:49;;;;;;;6.20;2.25;;;;;;;14.67;82.47;100595.03;6152707;23;20012;-89
2022/09/09 04:21:16;;;;;;;6.30;2.08;;;;;;;14.67;82.70;100590.56;6151553;23;20448;-89
2022/09/09 04:23:41;;;;;;;5.50;2.28;;;;;;;14.72;81.79;100606.25;6179919;23;20369;-90
2022/09/09 04:26:07;;;;;;;6.95;2.30;;;;;;;14.70;82.28;100600.19;6151299;23;20009;-89
2022/09/09 04:28:35;;;;;;;5.22;1.77;;;;;;;14.72;82.19;100603.59;6153204;23;20425;-89
2022/09/09 04:31:09;;;;;;;3.83;2.03;;;;;;;14.64;82.82;100590.78;6151506;23;20009;-89
2022/09/09 04:33:35;;;;;;;5.32;2.10;;;;;;;14.64;83.09;100600.53;6177497;23;20385;-89
2022/09/09 04:36:01;;;;;;;5.10;1.88;;;;;;;14.68;83.05;100591.44;6150695;23;20009;-90
2022/09/09 04:38:26;;;;;;;6.07;2.88;;;;;;;14.69;83.24;100593.16;6152754;23;20008;-89
2022/09/09 04:40:53;;;;;;;4.65;2.20;;;;;;;14.67;83.11;100589.72;6178682;23;20005;-89
2022/09/09 04:43:20;;;;;;;5.90;2.42;;;;;;;14.63;83.28;100577.56;6176785;23;20495;-89
2022/09/09 04:45:50;;;;;;;5.57;2.20;;;;;;;14.66;82.95;100591.53;6176670;23;20361;-90
2022/09/09 04:48:17;;;;;;;8.10;2.35;;;;;;;14.65;83.31;100592.50;6152358;23;20055;-90
2022/09/09 04:50:42;;;;;;;5.38;2.22;;;;;;;14.65;83.23;100592.50;6150266;23;20413;-90
2022/09/09 04:53:07;;;;;;;6.60;2.30;;;;;;;14.61;83.47;100588.31;6153618;23;20095;-90
2022/09/09 04:55:34;;;;;;;5.57;1.90;;;;;;;14.65;83.11;100586.31;6150749;23;20380;-90
2022/09/09 04:58:04;;;;;;;6.68;2.08;;;;;;;14.62;83.11;100589.16;6152062;23;20005;-90
2022/09/09 05:00:30;;;;;;;6.00;2.50;;;;;;;14.61;83.28;100576.81;6151821;23;20278;-90
2022/09/09 05:02:55;;;;;;;5.60;2.17;;;;;;;14.66;83.19;100580.88;6179937;23;20277;-89
2022/09/09 05:05:21;;;;;;;6.32;2.35;;;;;;;14.67;83.12;100582.59;6175842;23;20005;-90
2022/09/09 05:07:47;;;;;;;4.63;2.45;;;;;;;14.59;83.35;100570.69;6126820;23;20048;-90
2022/09/09 05:10:13;;;;;;;5.88;2.13;;;;;;;14.63;83.04;100573.09;6149228;23;20005;-90
2022/09/09 05:12:38;;;;;;;4.78;2.03;;;;;;;14.62;83.11;100576.69;6149540;23;20310;-89
2022/09/09 05:15:04;;;;;;;9.23;2.65;;;;;;;14.66;83.52;100588.03;6121228;23;20311;-90
2022/09/09 05:17:29;;;;;;;10.60;2.40;;;;;;;14.68;83.80;100578.97;6121173;23;20377;-91
2022/09/09 05:19:55;;;;;;;5.40;2.38;;;;;;;14.66;83.38;100574.72;6122579;23;20008;-90
2022/09/09 05:22:21;;;;;;;6.38;2.28;;;;;;;14.62;83.20;100570.53;6121140;23;20005;-90
2022/09/09 05:24:46;;;;;;;6.95;2.42;;;;;;;14.62;83.06;100584.69;6119265;23;20150;-89
2022/09/09 05:27:12;;;;;;;4.45;2.00;;;;;;;14.65;83.25;100579.19;6122010;23;20072;-90
2022/09/09 05:29:37;;;;;;;6.60;2.10;;;;;;;14.67;83.63;100576.41;6121291;23;20563;-90
2022/09/09 05:32:04;;;;;;;6.97;2.25;;;;;;;14.64;83.68;100571.28;6145264;23;20487;-90
2022/09/09 05:34:29;;;;;;;3.97;2.20;;;;;;;14.69;83.44;100575.38;6146915;23;20040;-90
2022/09/09 05:36:54;;;;;;;4.70;2.22;;;;;;;14.66;83.09;100567.59;6120504;23;20330;-89
2022/09/09 05:39:20;;;;;;;5.97;2.42;;;;;;;14.71;83.40;100570.81;6122614;23;20017;-89
2022/09/09 05:41:45;;;;;;;9.00;2.30;;;;;;;14.67;83.00;100555.97;6148416;23;20001;-89
2022/09/09 05:44:10;;;;;;;8.30;2.33;;;;;;;14.78;83.13;100572.16;6121105;23;20071;-90
2022/09/09 05:46:36;;;;;;;6.72;2.30;;;;;;;14.76;82.92;100578.53;6144886;23;19998;-90
2022/09/09 05:49:02;;;;;;;7.05;2.40;;;;;;;14.78;83.36;100582.81;6120498;23;20092;-90
2022/09/09 05:51:29;;;;;;;8.18;2.30;;;;;;;14.86;83.86;100592.97;6121079;23;20009;-90
2022/09/09 05:53:58;;;;;;;7.00;2.17;;;;;;;14.87;83.17;100584.00;6120032;23;20323;-90
2022/09/09 05:56:25;;;;;;;9.88;2.45;;;;;;;14.97;83.34;100590.50;6119382;23;20044;-90
2022/09/09 05:58:53;;;;;;;6.90;2.78;;;;;;;14.93;84.09;100581.00;6149020;23;20472;-90
2022/09/09 06:01:21;;;;;;;8.40;2.38;;;;;;;15.02;83.37;100588.41;6119192;23;20001;-90
2022/09/09 06:03:48;;;;;;;5.35;2.00;;;;;;;15.11;82.85;100597.63;6118791;23;20005;-90
2022/09/09 06:06:22;;;;;;;7.28;2.22;;;;;;;15.09;83.71;100601.31;6153072;23;20024;-90
2022/09/09 06:08:50;;;;;;;7.53;2.15;;;;;;;15.14;83.67;100597.41;6178184;23;20377;-90
2022/09/09 06:11:19;;;;;;;8.05;2.90;;;;;;;15.21;83.87;100600.56;6177364;23;20012;-90
2022/09/09 06:13:44;;;;;;;5.18;2.05;;;;;;;15.22;83.54;100591.63;6151585;23;20032;-90
2022/09/09 06:16:11;;;;;;;10.80;2.75;;;;;;;15.33;83.03;100599.75;6178038;23;20008;-89
2022/09/09 06:18:37;;;;;;;9.30;2.70;;;;;;;15.40;82.75;100597.59;6150541;23;20005;-90
2022/09/09 06:21:06;;;;;;;7.97;2.20;;;;;;;15.49;81.99;100586.34;6152505;23;20028;-90
2022/09/09 06:23:32;;;;;;;6.90;2.35;;;;;;;15.59;82.67;100595.44;6177130;23;20075;-91
2022/09/09 06:26:06;;;;;;;9.90;2.40;;;;;;;15.65;82.27;100592.41;6151444;23;20016;-91
2022/09/09 06:28:33;;;;;;;10.52;2.85;;;;;;;15.71;82.32;100585.81;6150222;23;20001;-92
2022/09/09 06:31:09;;;;;;;8.35;2.80;;;;;;;15.84;82.75;100591.19;6176124;23;20011;-91
2022/09/09 06:33:40;;;;;;;8.18;2.47;;;;;;;16.02;81.63;100595.31;6149891;23;20339;-90
2022/09/09 06:36:10;;;;;;;8.85;2.47;;;;;;;16.12;81.50;100596.38;6177357;23;20023;-90
2022/09/09 06:38:35;;;;;;;8.85;1.98;;;;;;;16.14;79.47;100580.31;6179880;23;20004;-90
2022/09/09 06:41:01;;;;;;;10.35;2.47;;;;;;;16.27;79.57;100584.72;6176737;23;20009;-92
2022/09/09 06:43:28;;;;;;;9.80;2.67;;;;;;;16.25;79.45;100580.41;6151426;23;20519;-92
2022/09/09 06:46:00;;;;;;;7.80;2.30;;;;;;;16.24;78.48;100579.56;6148583;23;20009;-91
2022/09/09 06:48:27;;;;;;;9.18;2.35;;;;;;;16.35;78.78;100586.84;6148002;23;20036;-90
2022/09/09 06:51:17;;;;;;;6.35;2.42;;;;;;;16.37;78.58;100578.72;6150254;23;20004;-90
2022/09/09 06:53:44;;;;;;;8.05;2.45;;;;;;;16.32;78.79;100585.25;6149758;23;20004;-90
2022/09/09 06:56:09;;;;;;;6.25;2.60;;;;;;;16.23;78.85;100593.88;6125327;23;20092;-91
2022/09/09 06:58:36;;;;;;;4.57;2.07;;;;;;;16.22;78.22;100589.47;6152499;23;20464;-89
2022/09/09 07:01:05;;;;;;;10.45;2.53;;;;;;;16.28;78.78;100589.09;6173254;23;20244;-88
2022/09/09 07:03:31;;;;;;;9.18;2.25;;;;;;;16.24;78.53;100571.56;6150951;23;20457;-89
2022/09/09 07:05:56;;;;;;;8.98;2.58;;;;;;;16.43;78.54;100571.16;6146021;23;20006;-90
2022/09/09 07:08:24;;;;;;;8.57;2.53;;;;;;;16.54;77.50;100589.09;6148838;23;20005;-90
2022/09/09 07:10:51;;;;;;;13.05;2.40;;;;;;;16.55;75.90;100593.47;6148653;23;20436;-89
2022/09/09 07:13:16;;;;;;;10.07;2.28;;;;;;;16.77;76.10;100592.88;6150670;23;20013;-90
2022/09/09 07:15:42;;;;;;;6.82;2.65;;;;;;;16.98;75.82;100598.53;6177432;23;20459;-90
2022/09/09 07:18:09;;;;;;;7.22;2.30;;;;;;;16.95;75.45;100588.91;6154499;23;20008;-89
2022/09/09 07:20:35;;;;;;;7.60;2.28;;;;;;;17.05;75.18;100578.41;6180346;23;20005;-90
2022/09/09 07:23:00;;;;;;;8.52;2.00;;;;;;;17.29;74.87;100583.81;6152736;23;20366;-89
2022/09/09 07:25:28;;;;;;;7.72;1.80;;;;;;;17.22;73.44;100585.25;6176050;23;20001;-90
2022/09/09 07:27:54;;;;;;;8.82;2.30;;;;;;;17.25;73.32;100579.66;6177518;23;20009;-90
2022/09/09 07:30:20;;;;;;;6.38;2.30;;;;;;;17.26;73.66;100576.91;6147912;23;20109;-89
2022/09/09 07:32:45;;;;;;;6.30;2.30;;;;;;;17.31;72.37;100580.09;6173201;23;20067;-89
2022/09/09 07:35:10;;;;;;;9.45;2.65;;;;;;;17.42;72.19;100570.44;6170147;23;20441;-90
2022/09/09 07:37:37;;;;;;;8.85;2.13;;;;;;;17.71;71.70;100590.50;6176708;23;20055;-89
2022/09/09 07:40:03;;;;;;;11.10;2.53;;;;;;;17.91;70.85;100567.69;6176494;23;20440;-89
2022/09/09 07:42:29;;;;;;;9.27;2.22;;;;;;;18.00;70.86;100593.75;6151054;23;20016;-89
2022/09/09 07:44:54;;;;;;;6.70;2.15;;;;;;;17.84;70.40;100579.81;6151441;23;20063;-91
2022/09/09 07:47:20;;;;;;;5.38;1.60;;;;;;;17.73;70.56;100596.66;6147590;23;20084;-89
2022/09/09 07:49:46;;;;;;;8.20;1.85;;;;;;;17.69;71.30;100592.47;6153902;23;20009;-89
2022/09/09 07:52:12;;;;;;;7.18;1.77;;;;;;;17.70;69.75;100590.63;6179868;23;20001;-90
2022/09/09 07:54:37;;;;;;;6.05;1.80;;;;;;;17.63;70.44;100586.72;6178318;23;20512;-89
2022/09/09 07:57:04;;;;;;;5.97;1.88;;;;;;;17.60;70.21;100588.63;6178686;23;20035;-90
2022/09/09 07:59:30;;;;;;;7.32;2.00;;;;;;;17.65;70.33;100596.31;6174553;23;20475;-89
2022/09/09 08:01:55;;;;;;;10.85;1.95;;;;;;;17.89;70.41;100596.34;6176206;23;20449;-89
2022/09/09 08:04:23;;;;;;;7.35;2.08;;;;;;;17.97;70.04;100587.75;6178995;23;20084;-89
2022/09/09 08:06:52;;;;;;;5.70;2.00;;;;;;;18.29;68.56;100590.69;6179476;23;20135;-89
2022/09/09 08:09:18;;;;;;;4.35;1.85;;;;;;;18.32;68.17;100593.09;6180719;23;20004;-89
2022/09/09 08:11:44;;;;;;;7.10;1.80;;;;;;;18.27;69.89;100588.09;6154147;23;20005;-89
2022/09/09 08:14:11;;;;;;;6.22;1.88;;;;;;;18.40;68.11;100581.81;6180373;23;20374;-89
2022/09/09 08:16:40;;;;;;;7.88;1.88;;;;;;;18.42;67.69;100586.09;6177510;23;20207;-89
2022/09/09 08:19:07;;;;;;;9.05;2.10;;;;;;;18.30;69.00;100598.59;6180509;23;20283;-90
2022/09/09 08:21:33;;;;;;;7.47;1.75;;;;;;;18.17;68.20;100608.50;6179095;23;20333;-89
2022/09/09 08:24:00;;;;;;;6.65;1.70;;;;;;;18.17;68.76;100594.28;6180384;23;20171;-91
2022/09/09 08:26:30;;;;;;;6.75;1.92;;;;;;;18.21;68.10;100606.47;6154085;23;20037;-91
2022/09/09 08:28:58;;;;;;;5.45;1.70;;;;;;;18.31;68.40;100597.59;6151376;23;20436;-91
2022/09/09 08:31:33;;;;;;;7.65;2.00;;;;;;;18.39;68.58;100613.09;6151088;23;20004;-90
2022/09/09 08:33:59;;;;;;;5.00;2.17;;;;;;;18.37;67.18;100612.34;6149333;23;20016;-91
2022/09/09 08:36:27;;;;;;;6.05;1.67;;;;;;;18.32;67.20;100610.00;6151834;23;20380;-90
2022/09/09 08:38:55;;;;;;;7.68;1.63;;;;;;;18.32;66.79;100603.81;6137842;23;20001;-91
2022/09/09 08:41:45;;;;;;;6.85;1.67;;;;;;;18.35;67.48;100611.63;6155550;23;20337;-90
2022/09/09 08:44:37;;;;;;;5.22;2.03;;;;;;;18.46;67.39;100608.97;6158950;23;20032;-90
2022/09/09 08:47:15;;;;;;;6.03;2.00;;;;;;;18.51;67.33;100612.16;6153672;23;20429;-91
2022/09/09 08:49:58;;;;;;;8.02;1.90;;;;;;;18.53;67.61;100607.53;6179526;23;20119;-90
2022/09/09 08:53:01;;;;;;;6.05;1.70;;;;;;;18.41;67.94;100615.63;6179318;23;20001;-90
2022/09/09 08:55:33;;;;;;;;;;;;;;;18.45;67.33;100619.78;6178046;23;20384;-91
2022/09/09 08:58:06;;;;;;;4.82;1.92;;;;;;;18.23;67.99;100616.09;6152919;23;20324;-91
2022/09/09 09:00:44;;;;;;;7.57;1.85;;;;;;;18.14;67.38;100608.75;6152518;23;20087;-90
2022/09/09 09:03:22;;;;;;;8.32;1.80;;;;;;;18.16;68.95;100632.72;6152166;23;20016;-90
2022/09/09 09:05:57;;;;;;;7.38;2.03;;;;;;;18.10;68.31;100631.34;6153110;23;20004;-91
2022/09/09 09:08:37;;;;;;;8.50;2.10;;;;;;;18.16;68.08;100617.50;6153495;23;20460;-91
2022/09/09 09:11:05;;;;;;;7.68;1.58;;;;;;;18.27;67.70;100632.75;6142795;23;20832;-92
2022/09/09 09:13:43;;;;;;;6.47;1.80;;;;;;;18.24;67.21;100638.34;6147587;23;20429;-91
2022/09/09 09:16:17;;;;;;;7.90;1.83;;;;;;;18.15;67.39;100626.50;6152204;23;20005;-92
2022/09/09 09:18:43;;;;;;;7.22;1.60;;;;;;;18.27;67.93;100628.25;6152969;23;20516;-92
2022/09/09 09:21:24;;;;;;;4.32;1.90;;;;;;;18.34;66.94;100637.53;6177111;23;20005;-92
2022/09/09 09:24:00;;;;;;;6.15;1.73;;;;;;;18.48;66.55;100630.28;6179245;23;20071;-91
2022/09/09 09:26:31;;;;;;;7.72;2.28;;;;;;;18.48;66.57;100639.16;6179705;23;20009;-92
2022/09/09 09:28:59;;;;;;;5.80;1.90;;;;;;;18.45;67.09;100627.81;6153010;23;20460;-91
2022/09/09 09:31:26;;;;;;;5.10;1.67;;;;;;;18.50;66.45;100647.06;6151855;23;20001;-91
2022/09/09 09:33:54;;;;;;;6.75;2.08;;;;;;;18.51;67.40;100632.69;6180048;23;20012;-90
2022/09/09 09:36:23;;;;;;;7.32;2.20;;;;;;;18.58;67.01;100632.13;6152576;23;20016;-92
2022/09/09 09:38:57;;;;;;;10.32;2.47;;;;;;;18.59;66.64;100633.81;6151738;23;20096;-90
2022/09/09 09:41:32;;;;;;;6.13;1.75;;;;;;;18.61;66.52;100634.56;6151011;23;20496;-93
2022/09/09 09:43:58;;;;;;;5.50;1.73;;;;;;;18.83;65.97;100638.28;6152069;23;20373;-91
2022/09/09 09:46:25;;;;;;;4.95;1.95;;;;;;;18.83;66.30;100635.59;6152336;23;20008;-92
2022/09/09 09:48:59;;;;;;;4.88;1.95;;;;;;;18.99;64.88;100621.88;6153637;23;20064;-91
2022/09/09 09:51:26;;;;;;;9.60;2.28;;;;;;;19.11;65.20;100627.09;6151776;23;20099;-91
2022/09/09 09:53:53;;;;;;;4.57;1.88;;;;;;;19.21;63.43;100626.38;6153970;23;20497;-90
2022/09/09 09:56:27;;;;;;;7.25;2.05;;;;;;;19.23;64.97;100616.38;6150604;23;20361;-92
2022/09/09 09:58:54;;;;;;;6.72;1.90;;;;;;;19.21;63.53;100610.28;6152607;23;20075;-91
2022/09/09 10:01:29;;;;;;;9.82;1.98;;;;;;;19.14;64.77;100628.69;6151236;23;20001;-92
2022/09/09 10:03:58;;;;;;;4.22;1.55;;;;;;;18.87;64.26;100631.72;6151294;23;20016;-91
2022/09/09 10:06:36;;;;;;;8.02;2.28;;;;;;;18.62;65.67;100624.72;6178185;23;20445;-91
2022/09/09 10:09:19;;;;;;;5.60;1.52;;;;;;;18.42;67.35;100631.59;6179419;23;20063;-92
2022/09/09 10:11:52;;;;;;;7.53;2.00;;;;;;;18.34;68.50;100642.03;6177877;23;20024;-91
2022/09/09 10:14:25;;;;;;;5.05;1.95;;;;;;;18.31;67.19;100642.25;6177125;23;20256;-91
2022/09/09 10:16:56;;;;;;;8.05;1.95;;;;;;;18.31;67.35;100635.06;6177146;23;20031;-91
2022/09/09 10:19:36;;;;;;;3.72;1.67;;;;;;;18.49;67.17;100648.88;6179878;23;20441;-91
2022/09/09 10:22:27;;;;;;;7.10;2.20;;;;;;;18.60;67.53;100645.38;6152533;23;20017;-92
2022/09/09 10:24:52;;;;;;;5.60;1.70;;;;;;;18.61;68.42;100647.09;6151194;23;20005;-93
2022/09/09 10:27:21;;;;;;;6.93;1.90;;;;;;;18.51;68.76;100644.28;6152253;23;20015;-93
2022/09/09 10:30:08;;;;;;;6.47;2.22;;;;;;;18.52;69.23;100646.00;6152444;23;20248;-92
2022/09/09 10:32:39;;;;;;;7.35;1.80;;;;;;;18.29;70.83;100645.06;6150687;23;20007;-92
2022/09/09 10:35:26;;;;;;;4.97;1.73;;;;;;;18.09;71.41;100656.38;6172347;23;20032;-92
2022/09/09 10:38:28;;;;;;;7.03;1.90;;;;;;;17.91;72.04;100655.94;6151126;23;20333;-92
2022/09/09 10:40:56;;;;;;;8.38;1.90;;;;;;;17.85;72.22;100662.56;6150050;23;20005;-92
2022/09/09 10:43:49;;;;;;;4.40;1.75;;;;;;;17.81;72.64;100639.72;6153161;23;20013;-91
2022/09/09 10:46:39;;;;;;;6.68;2.20;;;;;;;17.74;72.64;100645.63;6151916;23;20008;-90
2022/09/09 10:49:19;;;;;;;12.20;2.53;;;;;;;17.82;73.56;100643.25;6156007;23;20008;-94
2022/09/09 10:52:05;;;;;;;6.80;2.20;;;;;;;17.85;72.62;100640.34;6155569;23;20013;-94
2022/09/09 10:55:00;;;;;;;6.53;2.38;;;;;;;18.05;72.59;100652.25;6152127;23;20005;-93
2022/09/09 10:57:31;;;;;;;7.47;2.30;;;;;;;18.14;72.75;100650.69;6156101;23;20437;-93
2022/09/09 11:00:03;;;;;;;10.07;2.35;;;;;;;18.30;72.67;100648.59;6181522;23;20004;-92
2022/09/09 11:02:30;;;;;;;6.47;2.03;;;;;;;18.50;71.76;100639.88;6183063;23;20028;-92
2022/09/09 11:04:56;;;;;;;6.88;2.63;;;;;;;18.54;70.82;100648.53;6155764;23;20039;-92
2022/09/09 11:07:29;;;;;;;5.25;1.80;;;;;;;18.58;71.69;100639.31;6136958;23;20382;-93
2022/09/09 11:10:01;;;;;;;8.32;2.30;;;;;;;18.48;71.07;100647.19;6152665;23;20433;-91
2022/09/09 11:12:28;;;;;;;5.53;2.03;;;;;;;18.44;72.42;100645.72;6153072;23;20565;-93
2022/09/09 11:15:23;;;;;;;7.72;2.30;;;;;;;18.35;71.57;100643.72;6124103;23;20005;-93
2022/09/09 11:18:02;;;;;;;7.38;2.58;;;;;;;18.16;72.48;100654.13;6122059;23;20477;-93
2022/09/09 11:20:28;;;;;;;7.57;2.15;;;;;;;18.14;72.09;100642.66;6125859;23;20005;-93
2022/09/09 11:23:01;;;;;;;6.25;2.33;;;;;;;18.22;72.96;100642.94;6151884;23;20006;-93
2022/09/09 11:25:36;;;;;;;6.03;2.10;;;;;;;18.42;72.25;100645.00;6125207;23;20002;-93
2022/09/09 11:28:22;;;;;;;4.07;1.95;;;;;;;18.70;71.79;100646.44;6125784;23;20446;-91
2022/09/09 11:30:56;;;;;;;5.78;1.92;;;;;;;18.73;71.24;100643.50;6123008;23;20020;-92
2022/09/09 11:33:59;;;;;;;5.47;2.08;;;;;;;18.64;71.07;100646.84;6125862;23;20009;-93
2022/09/09 11:36:31;;;;;;;6.97;2.30;;;;;;;18.58;69.49;100655.38;6151038;23;20402;-92
2022/09/09 11:39:14;;;;;;;6.25;1.75;;;;;;;18.53;70.65;100622.75;6126040;23;20044;-91
2022/09/09 11:41:40;;;;;;;4.22;1.70;;;;;;;18.47;71.30;100637.47;6150917;23;20001;-92
2022/09/09 11:44:18;;;;;;;7.63;2.08;;;;;;;18.37;71.56;100641.78;6152227;23;20012;-91